^^
Datos históricos de la estación: Murcia-Puente Tocinos
Diario Informe para Marzo 18, 2019 Unidades:  Ingés    Métrico   Ambas
Diario Semanal Mensual Anual
  Máxima: Mínima: Promedio:
Temperatura: 59.7 °F 41.2 °F 50.7 °F
Punto de rocio: 43.2 °F 33.6 °F 37.6 °F
Humedad: 79.5% 39.1% 62%
Velocidad viento: 5.4mph 0mph 3mph
Racha viento: 10mph - -
Viento- - SSO
Presión: 30.1 in 30 in -
Precipitación: 0 in    
 
 
Tabla de datos para Marzo 18, 2019
Hora Temperatura Punto de rocio Presión Viento Velocidad viento Racha viento Humedad Intensidad lluvia(por hora) Nubes
00:04 49.3 °F 37.6 °F 30.1 in Sur 3.6 mph 6 mph 64.1% 0 in
00:09 48.9 °F 37.8 °F 30.1 in SSE 3.2 mph 5.2 mph 65% 0 in
00:14 48.7 °F 37.6 °F 30.1 in Sur 2.9 mph 6.2 mph 65% 0 in
00:19 48.7 °F 37.6 °F 30.1 in Sur 3.7 mph 6.9 mph 65% 0 in
00:24 48.9 °F 37.8 °F 30.1 in SSO 4.3 mph 7 mph 65% 0 in
00:29 48.9 °F 37.8 °F 30.1 in SSO 4.8 mph 8.1 mph 65% 0 in
00:34 48.9 °F 37.6 °F 30.1 in SSO 5.2 mph 8.1 mph 65% 0 in
00:39 48.7 °F 37.6 °F 30 in SSO 4.9 mph 8.1 mph 65% 0 in
00:44 48.7 °F 37.6 °F 30 in SSO 4.7 mph 8 mph 65% 0 in
00:49 48.7 °F 37.6 °F 30.1 in SSO 4.7 mph 7.4 mph 65% 0 in
00:54 48.7 °F 37.6 °F 30.1 in SO 4.7 mph 8.1 mph 65% 0 in
00:59 48.7 °F 37.6 °F 30.1 in SO 5.1 mph 9.2 mph 65% 0 in
01:04 48.7 °F 37.2 °F 30.1 in SO 5.4 mph 9.2 mph 64.3% 0 in
01:09 48.7 °F 37.2 °F 30 in SO 5.4 mph 9 mph 64% 0 in
01:14 48.7 °F 37 °F 30 in SO 5.4 mph 7.4 mph 64% 0 in
01:19 48.7 °F 37.2 °F 30 in OSO 4.8 mph 7 mph 64.3% 0 in
01:24 48.7 °F 37.4 °F 30 in OSO 4.3 mph 6 mph 65% 0 in
01:29 48.6 °F 37.2 °F 30 in OSO 3 mph 4 mph 65% 0 in
01:34 48.6 °F 37.2 °F 30 in OSO 2 mph 2.9 mph 65% 0 in
01:39 48.4 °F 37.2 °F 30 in OSO 1.7 mph 3.5 mph 65% 0 in
01:44 48.2 °F 37.2 °F 30 in OSO 1.4 mph 3.5 mph 65.5% 0 in
01:49 48 °F 37.2 °F 30 in OSO 1.6 mph 3 mph 66% 0 in
01:54 48 °F 37.2 °F 30 in OSO 1.8 mph 4.6 mph 66% 0 in
01:59 48 °F 37.2 °F 30 in SO 1.9 mph 5.8 mph 66% 0 in
02:04 48 °F 37.2 °F 30 in Sur 2 mph 6 mph 66% 0 in
02:09 48 °F 37.2 °F 30 in SSE 2.5 mph 5 mph 66% 0 in
02:14 48 °F 37.2 °F 30 in Sur 3.1 mph 5.4 mph 66% 0 in
02:19 48 °F 37.2 °F 30 in SSO 3.1 mph 6 mph 66% 0 in
02:24 47.8 °F 37 °F 30 in SO 3.1 mph 6.4 mph 66% 0 in
02:29 47.8 °F 37 °F 30 in SO 3.8 mph 7 mph 66% 0 in
02:34 48 °F 37.2 °F 30 in SO 4.3 mph 7 mph 66% 0 in
02:39 48 °F 37.2 °F 30 in SSO 4.2 mph 6 mph 66% 0 in
02:44 47.8 °F 37 °F 30 in SSO 4 mph 5.8 mph 66% 0 in
02:49 47.8 °F 37 °F 30 in SSO 3.8 mph 6 mph 66% 0 in
02:54 47.7 °F 36.9 °F 30 in SSO 3.6 mph 6 mph 66% 0 in
02:59 47.7 °F 36.9 °F 30 in SSO 4 mph 6.2 mph 66% 0 in
03:04 47.7 °F 36.9 °F 30 in SSO 4.3 mph 6 mph 66% 0 in
03:09 47.7 °F 37 °F 30 in SSO 4.3 mph 6 mph 66.3% 0 in
03:14 47.5 °F 37 °F 30 in SSO 4.3 mph 6 mph 67% 0 in
03:19 47.3 °F 36.9 °F 30 in SSO 4.2 mph 7.6 mph 67% 0 in
03:24 47.3 °F 36.9 °F 30 in SSO 4 mph 8.1 mph 67% 0 in
03:29 47.3 °F 36.9 °F 30 in Sur 4.4 mph 8 mph 67% 0 in
03:34 46.9 °F 36.9 °F 30 in Sur 4.7 mph 6.2 mph 67.8% 0 in
03:39 46.8 °F 36.9 °F 30 in Sur 4.5 mph 6.2 mph 68.4% 0 in
03:44 46.4 °F 36.9 °F 30 in Sur 4.3 mph 6 mph 69% 0 in
03:49 46.2 °F 36.9 °F 30 in SSO 4.2 mph 6 mph 69.7% 0 in
03:54 46 °F 36.9 °F 30 in Sur 4 mph 6.2 mph 70% 0 in
03:59 45.9 °F 36.7 °F 30 in Sur 4 mph 6 mph 70.3% 0 in
04:04 45.7 °F 36.9 °F 30 in SO 4 mph 6 mph 71% 0 in
04:09 45.7 °F 36.9 °F 30 in SSO 4 mph 6 mph 71% 0 in
04:14 45.5 °F 36.7 °F 30 in SSO 4 mph 6 mph 71.2% 0 in
04:19 45.3 °F 36.7 °F 30 in SSO 4 mph 6 mph 72% 0 in
04:24 45.1 °F 36.7 °F 30 in SO 4 mph 5.9 mph 72% 0 in
04:29 45.1 °F 36.7 °F 30 in SO 3.8 mph 6 mph 72% 0 in
04:34 45 °F 36.5 °F 30 in Sur 3.6 mph 6 mph 72% 0 in
04:39 45 °F 36.5 °F 30 in SSO 3.6 mph 6 mph 72% 0 in
04:44 44.8 °F 36.3 °F 30 in SO 3.6 mph 6 mph 72% 0 in
04:49 44.8 °F 36.3 °F 30 in SO 3.6 mph 6 mph 72% 0 in
04:54 44.8 °F 36.3 °F 30 in SO 3.6 mph 6 mph 72% 0 in
04:59 45 °F 36.3 °F 30 in OSO 3.3 mph 5.2 mph 72% 0 in
05:04 44.8 °F 36.3 °F 30 in OSO 3.1 mph 5.2 mph 72% 0 in
05:09 44.8 °F 36.1 °F 30 in Oeste 3.1 mph 5 mph 72% 0 in
05:14 44.4 °F 36 °F 30 in OSO 3.1 mph 5.9 mph 72% 0 in
05:19 44.4 °F 36 °F 30.1 in OSO 3.1 mph 6.9 mph 72% 0 in
05:24 44.4 °F 36.1 °F 30.1 in OSO 3.1 mph 7 mph 72.4% 0 in
05:29 44.4 °F 36 °F 30.1 in OSO 3 mph 5.2 mph 72.1% 0 in
05:34 44.6 °F 36.1 °F 30.1 in OSO 2.9 mph 6.9 mph 72% 0 in
05:39 44.8 °F 36.3 °F 30.1 in OSO 3.5 mph 7 mph 72% 0 in
05:44 44.8 °F 36.3 °F 30.1 in OSO 4 mph 6 mph 72% 0 in
05:49 44.8 °F 36.3 °F 30.1 in OSO 3.4 mph 5.8 mph 72% 0 in
05:54 44.6 °F 36.3 °F 30.1 in OSO 2.9 mph 6 mph 72.3% 0 in
05:59 44.4 °F 36.3 °F 30.1 in OSO 3 mph 6 mph 73% 0 in
06:04 44.4 °F 36.3 °F 30.1 in OSO 3.1 mph 6 mph 73% 0 in
06:09 44.4 °F 36.3 °F 30.1 in OSO 3.1 mph 5.2 mph 73% 0 in
06:14 44.4 °F 36.3 °F 30.1 in OSO 3.1 mph 5 mph 73% 0 in
06:19 44.4 °F 36.3 °F 30.1 in SO 3 mph 5 mph 72.9% 0 in
06:24 44.2 °F 36 °F 30.1 in Este 2.9 mph 5 mph 72.3% 0 in
06:29 43.7 °F 35.6 °F 30.1 in SSE 2.9 mph 5.8 mph 73.3% 0 in
06:34 43.2 °F 35.6 °F 30.1 in Sur 2.9 mph 6 mph 74.6% 0 in
06:39 42.8 °F 35.6 °F 30.1 in Sur 2.9 mph 5 mph 75.7% 0 in
06:44 42.6 °F 35.6 °F 30.1 in Sur 2.9 mph 5 mph 76% 0 in
06:49 42.4 °F 35.6 °F 30.1 in Sur 2.3 mph 4 mph 76.4% 0 in
06:54 42.6 °F 35.8 °F 30.1 in SO 1.8 mph 5.2 mph 77% 0 in
06:59 42.8 °F 36 °F 30.1 in Oeste 2.5 mph 5 mph 76.5% 0 in
07:04 43 °F 36 °F 30.1 in Oeste 2.9 mph 5.2 mph 76% 0 in
07:09 43 °F 36 °F 30.1 in Oeste 2.9 mph 5.9 mph 76% 0 in
07:14 43.2 °F 36.1 °F 30.1 in SO 2.9 mph 6 mph 76% 0 in
07:19 43.2 °F 36.1 °F 30.1 in SO 2.9 mph 5 mph 76% 0 in
07:24 43.3 °F 36.3 °F 30.1 in SO 2.9 mph 5 mph 76% 0 in
07:29 43.5 °F 36.3 °F 30.1 in SO 2.6 mph 5 mph 75.5% 0 in
07:34 43.5 °F 36.1 °F 30.1 in SO 2.4 mph 4 mph 75.2% 0 in
07:39 43.5 °F 36.1 °F 30.1 in SO 2.2 mph 3 mph 75% 0 in
07:44 43.3 °F 36 °F 30.1 in SO 2 mph 5.8 mph 75% 0 in
07:49 43.3 °F 36 °F 30.1 in OSO 1.9 mph 6 mph 75% 0 in
07:54 43.2 °F 35.8 °F 30.1 in OSO 1.8 mph 5 mph 75% 0 in
07:59 43.2 °F 35.8 °F 30.1 in OSO 2.2 mph 5 mph 75% 0 in
08:04 43.2 °F 35.8 °F 30.1 in OSO 2.4 mph 5 mph 75% 0 in
08:09 43.2 °F 35.8 °F 30.1 in OSO 2.4 mph 4.6 mph 75% 0 in
08:14 42.8 °F 35.4 °F 30.1 in ESE 2.4 mph 5 mph 75% 0 in
08:19 42.3 °F 35.1 °F 30.1 in ESE 2.4 mph 4.6 mph 75.6% 0 in
08:24 41.7 °F 35.1 °F 30.1 in ESE 2.4 mph 5 mph 76.8% 0 in
08:29 41.5 °F 35.1 °F 30.1 in ESE 2.7 mph 5.2 mph 77.7% 0 in
08:34 41.2 °F 34.9 °F 30.1 in SSE 2.9 mph 5 mph 78.2% 0 in
08:39 41.2 °F 35.2 °F 30.1 in Sur 2.9 mph 5 mph 79% 0 in
08:44 41.2 °F 35.2 °F 30.1 in Sur 2.9 mph 5 mph 79.4% 0 in
08:49 41.4 °F 35.6 °F 30.1 in Sur 2.9 mph 5 mph 79.5% 0 in
08:54 41.5 °F 35.4 °F 30.1 in Sur 2.9 mph 5 mph 79% 0 in
08:59 41.7 °F 35.4 °F 30.1 in Sur 2.6 mph 4 mph 78% 0 in
09:04 41.7 °F 35.4 °F 30.1 in Sur 2.4 mph 3.6 mph 78% 0 in
09:09 41.9 °F 35.6 °F 30.1 in Sur 2.2 mph 4 mph 78% 0 in
09:14 42.3 °F 35.8 °F 30.1 in Sur 2 mph 4.6 mph 78% 0 in
09:19 42.3 °F 36 °F 30.1 in Sur 2 mph 5 mph 78% 0 in
09:24 42.8 °F 36.1 °F 30.1 in Sur 2 mph 3.5 mph 77.6% 0 in
09:29 43.3 °F 36.1 °F 30.1 in SSE 1.9 mph 3.6 mph 75.9% 0 in
09:34 43.7 °F 36.1 °F 30.1 in SSE 1.8 mph 4 mph 74.8% 0 in
09:39 43.9 °F 36.1 °F 30.1 in SE 2.4 mph 5.8 mph 74% 0 in
09:44 43.9 °F 36.1 °F 30.1 in SE 2.9 mph 6 mph 74% 0 in
09:49 44.1 °F 36.3 °F 30.1 in SE 2.9 mph 5 mph 74.5% 0 in
09:54 44.4 °F 36.9 °F 30.1 in SE 2.9 mph 3 mph 75% 0 in
09:59 45.1 °F 37 °F 30.1 in SE 1.1 mph 2.3 mph 73.1% 0 in
10:04 45.7 °F 37.2 °F 30.1 in Calm   3.5 mph 72% 0 in
10:09 46 °F 37.2 °F 30.1 in Calm   3 mph 71.3% 0 in
10:14 46.8 °F 37.2 °F 30.1 in Calm   3.5 mph 69.7% 0 in
10:19 47.1 °F 37.2 °F 30.1 in SE 1.1 mph 3.5 mph 68.5% 0 in
10:24 47.7 °F 37.4 °F 30.1 in SSE 2 mph 4.7 mph 67.5% 0 in
10:29 47.8 °F 36.9 °F 30.1 in SO 2 mph 5.2 mph 65.6% 0 in
10:34 47.8 °F 36.1 °F 30.1 in OSO 2 mph 6.2 mph 63.7% 0 in
10:39 47.8 °F 35.8 °F 30.1 in OSO 2.9 mph 6 mph 63% 0 in
10:44 47.8 °F 35.6 °F 30.1 in OSO 3.6 mph 8.1 mph 62.4% 0 in
10:49 48 °F 35.6 °F 30.1 in Oeste 3.6 mph 8 mph 62% 0 in
10:54 48.2 °F 36 °F 30.1 in OSO 3.6 mph 7 mph 62.2% 0 in
10:59 48.6 °F 36 °F 30.1 in Oeste 3.3 mph 6 mph 61.5% 0 in
11:04 48.7 °F 35.8 °F 30.1 in OSO 3.1 mph 5 mph 60.7% 0 in
11:09 48.9 °F 36.1 °F 30.1 in OSO 2.7 mph 5 mph 60.8% 0 in
11:14 49.5 °F 36.1 °F 30.1 in SSO 2.4 mph 5.2 mph 59.9% 0 in
11:19 50.4 °F 36 °F 30.1 in SE 2.4 mph 5.2 mph 57.8% 0 in
11:24 50.9 °F 36 °F 30.1 in SE 2.4 mph 5.9 mph 56.8% 0 in
11:29 51.3 °F 36.1 °F 30.1 in SSE 2.8 mph 6 mph 56% 0 in
11:34 51.4 °F 36 °F 30.1 in SSE 3.1 mph 7.4 mph 55.5% 0 in
11:39 51.6 °F 36 °F 30.1 in SSO 3.4 mph 7 mph 54.9% 0 in
11:44 51.4 °F 35.8 °F 30.1 in SSO 3.6 mph 7 mph 54.8% 0 in
11:49 51.6 °F 35.6 °F 30.1 in SSO 3.8 mph 7 mph 54.4% 0 in
11:54 51.8 °F 35.6 °F 30.1 in Sur 4 mph 5.9 mph 54% 0 in
11:59 52.2 °F 35.6 °F 30.1 in Sur 3 mph 6.2 mph 53% 0 in
12:04 52.3 °F 35.4 °F 30.1 in Sur 2.4 mph 6 mph 52.4% 0 in
12:09 52.7 °F 35.2 °F 30.1 in Sur 2.8 mph 6.9 mph 51.4% 0 in
12:14 53.1 °F 35.2 °F 30.1 in SSO 3.1 mph 7 mph 50.9% 0 in
12:19 53.1 °F 35.1 °F 30.1 in SO 3.4 mph 7.4 mph 50.1% 0 in
12:24 53.2 °F 35.1 °F 30.1 in SSO 3.6 mph 7 mph 50% 0 in
12:29 53.2 °F 34.9 °F 30.1 in SO 3.6 mph 6 mph 49.6% 0 in
12:34 53.4 °F 34.9 °F 30.1 in OSO 3.6 mph 7.6 mph 49.5% 0 in
12:39 53.4 °F 34.7 °F 30.1 in OSO 3.8 mph 8.1 mph 49.1% 0 in
12:44 53.4 °F 34.7 °F 30.1 in OSO 4 mph 8.1 mph 49% 0 in
12:49 53.4 °F 34.7 °F 30.1 in OSO 4.3 mph 8.1 mph 49% 0 in
12:54 54 °F 34.7 °F 30.1 in SO 4.7 mph 7 mph 48.2% 0 in
12:59 54.3 °F 34.9 °F 30.1 in SO 4 mph 7 mph 47.8% 0 in
13:04 54.5 °F 34.9 °F 30.1 in OSO 3.6 mph 9.7 mph 47.4% 0 in
13:09 54.7 °F 34.9 °F 30.1 in Oeste 3.6 mph 10 mph 47% 0 in
13:14 54.9 °F 35.1 °F 30.1 in Oeste 3.6 mph 6.9 mph 47% 0 in
13:19 54.9 °F 34.9 °F 30.1 in OSO 3.4 mph 9.2 mph 46.8% 0 in
13:24 55 °F 34.9 °F 30.1 in SO 3.1 mph 9 mph 46.5% 0 in
13:29 55.2 °F 34.9 °F 30.1 in OSO 3.6 mph 7 mph 46% 0 in
13:34 55.6 °F 34.9 °F 30.1 in SSO 4 mph 6.4 mph 45.5% 0 in
13:39 55.6 °F 34.7 °F 30 in SO 3.8 mph 8.1 mph 45.1% 0 in
13:44 55.4 °F 34.5 °F 30 in SO 3.6 mph 8 mph 45% 0 in
13:49 55.4 °F 34.7 °F 30 in OSO 3.9 mph 5.2 mph 45.6% 0 in
13:54 55.8 °F 34.9 °F 30 in OSO 4 mph 5 mph 45.3% 0 in
13:59 55.9 °F 34.7 °F 30 in NNO 3.4 mph 6.9 mph 44.4% 0 in
14:04 56.1 °F 34.7 °F 30 in NNO 3.1 mph 7 mph 44.3% 0 in
14:09 56.1 °F 34.5 °F 30 in ONO 2.7 mph 6 mph 44% 0 in
14:14 56.3 °F 34.7 °F 30 in OSO 2.4 mph 4.7 mph 44.1% 0 in
14:19 56.5 °F 34.7 °F 30 in SE 2.1 mph 5 mph 43.6% 0 in
14:24 56.7 °F 34.2 °F 30 in Sur 1.8 mph 5.9 mph 42.7% 0 in
14:29 56.8 °F 34 °F 30 in SO 1.9 mph 6 mph 42% 0 in
14:34 56.8 °F 34 °F 30 in OSO 2 mph 6.2 mph 42% 0 in
14:39 57 °F 33.6 °F 30 in ONO 2.6 mph 6.9 mph 41.3% 0 in
14:44 57 °F 34 °F 30 in NO 3.1 mph 7 mph 41.7% 0 in
14:49 57.2 °F 34.3 °F 30 in ONO 3 mph 7 mph 41.9% 0 in
14:54 57.7 °F 34.3 °F 30 in SSO 2.9 mph 5.9 mph 41.2% 0 in
14:59 57.9 °F 33.8 °F 30 in SSE 3 mph 7 mph 40.3% 0 in
15:04 57.9 °F 33.8 °F 30 in SE 3.1 mph 7 mph 40% 0 in
15:09 58.5 °F 34.2 °F 30 in SSO 3 mph 8.1 mph 40% 0 in
15:14 58.5 °F 34.2 °F 30 in SSO 2.9 mph 8.1 mph 40% 0 in
15:19 58.6 °F 34.3 °F 30 in OSO 3.2 mph 6 mph 40% 0 in
15:24 58.6 °F 34 °F 30 in Oeste 3.6 mph 5.2 mph 39.4% 0 in
15:29 58.6 °F 33.8 °F 30 in SSO 2.9 mph 6.9 mph 39.1% 0 in
15:34 58.5 °F 34 °F 30 in SSO 2.4 mph 8.7 mph 39.7% 0 in
15:39 58.5 °F 34.2 °F 30 in Sur 3.6 mph 9 mph 40% 0 in
15:44 58.5 °F 34.2 °F 30 in SE 4.7 mph 7 mph 40% 0 in
15:49 58.3 °F 34 °F 30 in Sur 4.5 mph 6.2 mph 40% 0 in
15:54 58.5 °F 34.5 °F 30 in SSO 4.3 mph 6 mph 40.7% 0 in
15:59 58.6 °F 34.3 °F 30 in SSO 3.5 mph 5 mph 40% 0 in
16:04 58.8 °F 34.5 °F 30 in SSO 3.1 mph 5 mph 40% 0 in
16:09 59.2 °F 34.9 °F 30 in SSO 2.7 mph 5.9 mph 40% 0 in
16:14 59.4 °F 35.1 °F 30 in OSO 2.4 mph 6 mph 40% 0 in
16:19 59.5 °F 35.2 °F 30 in OSO 2.4 mph 5 mph 40% 0 in
16:24 59.5 °F 35.2 °F 30 in OSO 2.4 mph 4 mph 40% 0 in
16:29 59.5 °F 35.2 °F 30 in OSO 1.1 mph 3.5 mph 40% 0 in
16:34 59.7 °F 35.2 °F 30 in Calm   4.6 mph 40% 0 in
16:39 59.5 °F 35.1 °F 30 in Oeste 1.1 mph 5 mph 40% 0 in
16:44 59.2 °F 34.9 °F 30 in ONO 2 mph 5 mph 40% 0 in
16:49 59.2 °F 35.4 °F 30 in ONO 2 mph 4 mph 40.9% 0 in
16:54 59.2 °F 35.6 °F 30 in ONO 2 mph 3.5 mph 41% 0 in
16:59 59.2 °F 35.4 °F 30 in ONO 1.9 mph 4.6 mph 41% 0 in
17:04 59.2 °F 35.4 °F 30 in ONO 1.8 mph 5 mph 41% 0 in
17:09 58.8 °F 35.4 °F 30 in ONO 1.8 mph 5 mph 41.4% 0 in
17:14 58.8 °F 35.2 °F 30 in ONO 1.8 mph 5 mph 41% 0 in
17:19 58.6 °F 35.1 °F 30 in ONO 1.8 mph 3 mph 41% 0 in
17:24 58.6 °F 35.4 °F 30 in ONO 1.8 mph 4 mph 41.6% 0 in
17:29 58.6 °F 35.6 °F 30 in OSO 1.8 mph 5 mph 42% 0 in
17:34 58.5 °F 35.6 °F 30 in SSE 1.8 mph 5.8 mph 42.4% 0 in
17:39 58.5 °F 36 °F 30 in SE 2.5 mph 6 mph 43% 0 in
17:44 58.3 °F 36.3 °F 30 in SSE 3.1 mph 6 mph 43.8% 0 in
17:49 57.9 °F 36.3 °F 30 in SSE 3.4 mph 6 mph 44.2% 0 in
17:54 57.7 °F 36.5 °F 30 in SSE 3.6 mph 6 mph 45% 0 in
17:59 57.6 °F 36.5 °F 30 in SSE 3.3 mph 6 mph 45.2% 0 in
18:04 57.4 °F 36.9 °F 30 in SE 3.1 mph 6 mph 46% 0 in
18:09 57.4 °F 36.9 °F 30 in SE 3.4 mph 6.2 mph 46.3% 0 in
18:14 57.2 °F 37.2 °F 30 in SSE 3.6 mph 6.9 mph 47.3% 0 in
18:19 57 °F 37.9 °F 30 in Sur 3.8 mph 7 mph 48.8% 0 in
18:24 56.8 °F 38.5 °F 30 in SSE 4 mph 7 mph 50% 0 in
18:29 56.8 °F 39.2 °F 30 in SSE 4 mph 6 mph 51.6% 0 in
18:34 56.7 °F 39.6 °F 30 in SSE 4 mph 5.2 mph 52.9% 0 in
18:39 56.7 °F 40.6 °F 30 in SSE 3.5 mph 5.2 mph 55.1% 0 in
18:44 56.5 °F 41.4 °F 30 in SSE 3.1 mph 6.4 mph 56.8% 0 in
18:49 56.5 °F 41.9 °F 30 in SSE 3.4 mph 7 mph 58.4% 0 in
18:54 56.3 °F 42.4 °F 30 in SSE 3.6 mph 6.9 mph 59.8% 0 in
18:59 56.1 °F 42.6 °F 30 in Sur 3.9 mph 7 mph 60.5% 0 in
19:04 56.1 °F 42.8 °F 30 in SSO 4 mph 6.9 mph 61% 0 in
19:09 55.9 °F 43 °F 30 in SSO 4 mph 7 mph 61.5% 0 in
19:14 55.9 °F 43.2 °F 30 in SO 4 mph 7.6 mph 62% 0 in
19:19 55.9 °F 43.2 °F 30 in SO 4 mph 9.2 mph 62.2% 0 in
19:24 55.8 °F 43 °F 30 in SO 4 mph 9.2 mph 62.2% 0 in
19:29 55.8 °F 42.8 °F 30 in SO 4.4 mph 8.1 mph 62% 0 in
19:34 55.6 °F 42.8 °F 30 in SO 4.7 mph 8.1 mph 62% 0 in
19:39 55.4 °F 42.6 °F 30 in OSO 4.5 mph 8 mph 62% 0 in
19:44 55.2 °F 42.6 °F 30 in Oeste 4.3 mph 7 mph 62.3% 0 in
19:49 55.2 °F 42.8 °F 30 in Oeste 3.7 mph 6.2 mph 63% 0 in
19:54 55 °F 43 °F 30 in ONO 3.1 mph 6 mph 63.7% 0 in
19:59 54.9 °F 43 °F 30 in Oeste 3.1 mph 6 mph 64% 0 in
20:04 54.9 °F 43 °F 30 in Oeste 3.1 mph 6 mph 64.4% 0 in
20:09 54.7 °F 43.2 °F 30 in OSO 3 mph 5.9 mph 65% 0 in
20:14 54.7 °F 43 °F 30 in OSO 2.9 mph 6.2 mph 65% 0 in
20:19 54.5 °F 43 °F 30 in OSO 3.3 mph 6 mph 65% 0 in
20:24 54.5 °F 43 °F 30 in OSO 3.6 mph 5.2 mph 65% 0 in
20:29 54.5 °F 43 °F 30 in OSO 3.2 mph 5 mph 65% 0 in
20:34 54.3 °F 43 °F 30 in Oeste 2.9 mph 5.9 mph 65% 0 in
20:39 54.3 °F 42.8 °F 30 in Oeste 3 mph 6 mph 65% 0 in
20:44 54.3 °F 42.8 °F 30 in Oeste 3.1 mph 6 mph 65% 0 in
20:49 54.3 °F 42.8 °F 30 in Oeste 2.7 mph 4.6 mph 65% 0 in
20:54 54.1 °F 42.6 °F 30 in Oeste 2.4 mph 5 mph 65% 0 in
20:59 54.1 °F 42.6 °F 30 in Oeste 2.1 mph 3 mph 65% 0 in
21:04 54.1 °F 42.6 °F 30 in Oeste 1.8 mph 2 mph 65% 0 in
21:09 54.1 °F 42.6 °F 30 in Oeste 0.9 mph 3.5 mph 65% 0 in
21:14 54.1 °F 42.6 °F 30 in Calm   4.6 mph 64.9% 0 in
21:19 54.1 °F 42.6 °F 30 in SE 1.3 mph 6.2 mph 65% 0 in
21:24 54 °F 43 °F 30 in SE 2.4 mph 7.4 mph 66.2% 0 in
21:29 53.4 °F 42.8 °F 30 in SE 3.5 mph 8.1 mph 67.2% 0 in
21:34 53.2 °F 42.8 °F 30 in SSE 4.3 mph 8 mph 68% 0 in
21:39 52.9 °F 43 °F 30 in Sur 4.2 mph 7.4 mph 68.8% 0 in
21:44 52.9 °F 43 °F 30 in Sur 4 mph 7 mph 69% 0 in
21:49 52.7 °F 42.8 °F 30 in Sur 4 mph 6 mph 69% 0 in
21:54 52.7 °F 42.8 °F 30 in SSO 4 mph 5 mph 69% 0 in
21:59 52.7 °F 42.8 °F 30 in SSO 2.9 mph 5 mph 69% 0 in
22:04 52.9 °F 43 °F 30 in SSO 2 mph 3.6 mph 69% 0 in
22:09 52.9 °F 43 °F 30 in SSO 1.7 mph 5.2 mph 69% 0 in
22:14 52.9 °F 42.8 °F 30 in SSO 1.4 mph 5.8 mph 68.4% 0 in
22:19 53.1 °F 42.8 °F 30 in SO 2.5 mph 6 mph 68% 0 in
22:24 53.1 °F 42.8 °F 30 in SO 3.6 mph 6 mph 68% 0 in
22:29 53.2 °F 42.6 °F 30 in SO 3.3 mph 5.9 mph 67.3% 0 in
22:34 53.2 °F 42.6 °F 30 in SO 3.1 mph 6 mph 67% 0 in
22:39 53.2 °F 42.6 °F 30 in SO 3.1 mph 5 mph 67% 0 in
22:44 53.2 °F 42.6 °F 30 in SO 3.1 mph 5 mph 67% 0 in
22:49 53.2 °F 42.6 °F 30 in SO 2.2 mph 3 mph 67% 0 in
22:54 53.2 °F 42.6 °F 30 in SO 1.4 mph 2.4 mph 67.4% 0 in
22:59 53.1 °F 42.6 °F 30 in SO 0.6 mph 2.3 mph 68% 0 in
23:04 52.9 °F 42.8 °F 30 in Calm   2 mph 68.6% 0 in
23:09 52.5 °F 42.6 °F 30 in Calm     69% 0 in
23:14 52.5 °F 42.6 °F 30 in Calm   2.4 mph 69% 0 in
23:19 52.3 °F 42.8 °F 30 in SO 0.7 mph 4.6 mph 69.9% 0 in
23:24 52.2 °F 42.8 °F 30 in SO 1.4 mph 5 mph 70% 0 in
23:29 52.2 °F 42.6 °F 30 in SO 1.7 mph 4.6 mph 70% 0 in
23:34 52.2 °F 42.6 °F 30 in SO 2 mph 5 mph 70% 0 in
23:39 52.2 °F 42.6 °F 30 in SO 2.2 mph 4.7 mph 70% 0 in
23:44 52.2 °F 42.6 °F 30 in SO 2.4 mph 5 mph 70% 0 in
23:49 52.2 °F 42.6 °F 30 in SO 2.2 mph 4 mph 70% 0 in
23:54 52 °F 42.4 °F 30 in SO 2 mph 5 mph 70% 0 in
23:59 52 °F 42.1 °F 30 in SO 2.2 mph 5 mph 68.8% 0 in
Murcia-Puente Tocinos, España
Compliments of Weather Underground - 2.75 mb

La estación de MeteoMurcia.com, publica sus datos en los siguientes proyectos:

Weather Underground PWS IMURCIAP2 Meteoclimatic www.awekas.at

W3Counter
Web Analytics